sensor_id;sensor_type;location;lat;lon;timestamp;temperature;humidity
43581;DHT22;29175;51.030;4.606;2023-06-10T00:01:55;22.20;90.70
43581;DHT22;29175;51.030;4.606;2023-06-10T00:04:25;22.20;90.50
43581;DHT22;29175;51.030;4.606;2023-06-10T00:06:51;22.10;90.40
43581;DHT22;29175;51.030;4.606;2023-06-10T00:09:17;22.10;89.50
43581;DHT22;29175;51.030;4.606;2023-06-10T00:11:44;22.00;90.20
43581;DHT22;29175;51.030;4.606;2023-06-10T00:14:10;22.00;90.70
43581;DHT22;29175;51.030;4.606;2023-06-10T00:16:35;22.00;90.80
43581;DHT22;29175;51.030;4.606;2023-06-10T00:19:02;21.90;91.00
43581;DHT22;29175;51.030;4.606;2023-06-10T00:21:29;21.80;91.00
43581;DHT22;29175;51.030;4.606;2023-06-10T00:23:56;21.70;90.80
43581;DHT22;29175;51.030;4.606;2023-06-10T00:26:25;21.60;91.30
43581;DHT22;29175;51.030;4.606;2023-06-10T00:28:51;21.60;91.20
43581;DHT22;29175;51.030;4.606;2023-06-10T00:31:17;21.60;91.60
43581;DHT22;29175;51.030;4.606;2023-06-10T00:33:44;21.60;91.40
43581;DHT22;29175;51.030;4.606;2023-06-10T00:36:09;21.70;91.50
43581;DHT22;29175;51.030;4.606;2023-06-10T00:38:35;21.60;91.60
43581;DHT22;29175;51.030;4.606;2023-06-10T00:41:01;21.60;91.60
43581;DHT22;29175;51.030;4.606;2023-06-10T00:43:27;21.60;91.70
43581;DHT22;29175;51.030;4.606;2023-06-10T00:45:52;21.60;91.70
43581;DHT22;29175;51.030;4.606;2023-06-10T00:48:19;21.40;91.70
43581;DHT22;29175;51.030;4.606;2023-06-10T00:50:48;21.50;91.90
43581;DHT22;29175;51.030;4.606;2023-06-10T00:53:14;21.40;92.10
43581;DHT22;29175;51.030;4.606;2023-06-10T00:55:41;21.20;92.00
43581;DHT22;29175;51.030;4.606;2023-06-10T00:58:07;21.10;92.40
43581;DHT22;29175;51.030;4.606;2023-06-10T01:00:33;21.10;92.50
43581;DHT22;29175;51.030;4.606;2023-06-10T01:02:59;21.20;92.50
43581;DHT22;29175;51.030;4.606;2023-06-10T01:05:25;21.20;92.70
43581;DHT22;29175;51.030;4.606;2023-06-10T01:08:00;21.20;92.70
43581;DHT22;29175;51.030;4.606;2023-06-10T01:10:38;21.10;92.70
43581;DHT22;29175;51.030;4.606;2023-06-10T01:13:06;21.10;92.60
43581;DHT22;29175;51.030;4.606;2023-06-10T01:15:34;21.10;92.60
43581;DHT22;29175;51.030;4.606;2023-06-10T01:18:08;21.00;93.00
43581;DHT22;29175;51.030;4.606;2023-06-10T01:20:44;20.70;93.30
43581;DHT22;29175;51.030;4.606;2023-06-10T01:23:11;20.70;93.60
43581;DHT22;29175;51.030;4.606;2023-06-10T01:25:39;20.70;93.70
43581;DHT22;29175;51.030;4.606;2023-06-10T01:28:48;20.70;93.90
43581;DHT22;29175;51.030;4.606;2023-06-10T01:34:00;20.60;93.70
43581;DHT22;29175;51.030;4.606;2023-06-10T01:36:28;20.60;93.80
43581;DHT22;29175;51.030;4.606;2023-06-10T01:38:55;20.50;93.90
43581;DHT22;29175;51.030;4.606;2023-06-10T01:41:22;20.50;93.90
43581;DHT22;29175;51.030;4.606;2023-06-10T01:43:48;20.50;93.90
43581;DHT22;29175;51.030;4.606;2023-06-10T01:46:15;20.50;94.00
43581;DHT22;29175;51.030;4.606;2023-06-10T01:48:42;20.50;94.10
43581;DHT22;29175;51.030;4.606;2023-06-10T01:51:08;20.50;94.00
43581;DHT22;29175;51.030;4.606;2023-06-10T01:53:33;20.40;94.30
43581;DHT22;29175;51.030;4.606;2023-06-10T01:55:59;20.30;94.50
43581;DHT22;29175;51.030;4.606;2023-06-10T01:58:25;20.20;94.70
43581;DHT22;29175;51.030;4.606;2023-06-10T02:00:51;20.20;94.60
43581;DHT22;29175;51.030;4.606;2023-06-10T02:03:18;20.20;94.70
43581;DHT22;29175;51.030;4.606;2023-06-10T02:05:43;20.20;94.70
43581;DHT22;29175;51.030;4.606;2023-06-10T02:08:09;20.20;94.80
43581;DHT22;29175;51.030;4.606;2023-06-10T02:10:35;20.10;95.00
43581;DHT22;29175;51.030;4.606;2023-06-10T02:13:02;20.10;95.10
43581;DHT22;29175;51.030;4.606;2023-06-10T02:15:27;19.90;95.40
43581;DHT22;29175;51.030;4.606;2023-06-10T02:17:53;20.00;95.40
43581;DHT22;29175;51.030;4.606;2023-06-10T02:20:20;20.00;95.30
43581;DHT22;29175;51.030;4.606;2023-06-10T02:22:46;20.10;95.30
43581;DHT22;29175;51.030;4.606;2023-06-10T02:25:12;20.00;95.60
43581;DHT22;29175;51.030;4.606;2023-06-10T02:27:37;19.90;95.70
43581;DHT22;29175;51.030;4.606;2023-06-10T02:30:04;19.90;95.70
43581;DHT22;29175;51.030;4.606;2023-06-10T02:32:29;19.70;96.20
43581;DHT22;29175;51.030;4.606;2023-06-10T02:34:55;19.80;96.00
43581;DHT22;29175;51.030;4.606;2023-06-10T02:37:21;19.80;95.90
43581;DHT22;29175;51.030;4.606;2023-06-10T02:39:46;19.90;96.10
43581;DHT22;29175;51.030;4.606;2023-06-10T02:42:12;19.70;96.40
43581;DHT22;29175;51.030;4.606;2023-06-10T02:44:38;19.70;96.40
43581;DHT22;29175;51.030;4.606;2023-06-10T02:47:05;19.80;96.40
43581;DHT22;29175;51.030;4.606;2023-06-10T02:49:30;19.70;96.60
43581;DHT22;29175;51.030;4.606;2023-06-10T02:51:56;19.80;96.60
43581;DHT22;29175;51.030;4.606;2023-06-10T02:54:25;19.90;96.50
43581;DHT22;29175;51.030;4.606;2023-06-10T02:56:52;19.60;96.50
43581;DHT22;29175;51.030;4.606;2023-06-10T02:59:18;19.80;96.50
43581;DHT22;29175;51.030;4.606;2023-06-10T03:01:45;19.90;96.50
43581;DHT22;29175;51.030;4.606;2023-06-10T03:04:11;19.80;96.60
43581;DHT22;29175;51.030;4.606;2023-06-10T03:06:39;19.70;96.70
43581;DHT22;29175;51.030;4.606;2023-06-10T03:09:06;19.70;96.70
43581;DHT22;29175;51.030;4.606;2023-06-10T03:11:35;19.70;96.70
43581;DHT22;29175;51.030;4.606;2023-06-10T03:14:01;19.70;96.90
43581;DHT22;29175;51.030;4.606;2023-06-10T03:16:27;19.60;96.90
43581;DHT22;29175;51.030;4.606;2023-06-10T03:18:53;19.60;97.00
43581;DHT22;29175;51.030;4.606;2023-06-10T03:21:19;19.50;97.10
43581;DHT22;29175;51.030;4.606;2023-06-10T03:23:45;19.50;97.20
43581;DHT22;29175;51.030;4.606;2023-06-10T03:26:11;19.40;97.40
43581;DHT22;29175;51.030;4.606;2023-06-10T03:28:38;19.40;97.50
43581;DHT22;29175;51.030;4.606;2023-06-10T03:31:05;19.50;97.60
43581;DHT22;29175;51.030;4.606;2023-06-10T03:33:31;19.30;97.80
43581;DHT22;29175;51.030;4.606;2023-06-10T03:35:56;19.30;98.00
43581;DHT22;29175;51.030;4.606;2023-06-10T03:38:22;19.40;97.90
43581;DHT22;29175;51.030;4.606;2023-06-10T03:40:48;19.30;98.00
43581;DHT22;29175;51.030;4.606;2023-06-10T03:43:13;19.40;98.00
43581;DHT22;29175;51.030;4.606;2023-06-10T03:45:39;19.30;98.00
43581;DHT22;29175;51.030;4.606;2023-06-10T03:48:06;19.40;98.10
43581;DHT22;29175;51.030;4.606;2023-06-10T03:50:34;19.40;97.90
43581;DHT22;29175;51.030;4.606;2023-06-10T03:53:01;19.30;98.20
43581;DHT22;29175;51.030;4.606;2023-06-10T03:55:27;19.40;98.10
43581;DHT22;29175;51.030;4.606;2023-06-10T03:57:52;19.50;98.10
43581;DHT22;29175;51.030;4.606;2023-06-10T04:00:18;19.50;98.20
43581;DHT22;29175;51.030;4.606;2023-06-10T04:02:46;19.40;98.30
43581;DHT22;29175;51.030;4.606;2023-06-10T04:05:14;19.30;98.60
43581;DHT22;29175;51.030;4.606;2023-06-10T04:07:40;19.40;98.50
43581;DHT22;29175;51.030;4.606;2023-06-10T04:10:08;19.50;98.30
43581;DHT22;29175;51.030;4.606;2023-06-10T04:12:34;19.40;98.60
43581;DHT22;29175;51.030;4.606;2023-06-10T04:15:01;19.40;98.60
43581;DHT22;29175;51.030;4.606;2023-06-10T04:17:26;19.50;98.80
43581;DHT22;29175;51.030;4.606;2023-06-10T04:19:52;19.60;98.50
43581;DHT22;29175;51.030;4.606;2023-06-10T04:22:20;19.70;98.10
43581;DHT22;29175;51.030;4.606;2023-06-10T04:24:48;19.70;98.50
43581;DHT22;29175;51.030;4.606;2023-06-10T04:27:24;19.80;98.30
43581;DHT22;29175;51.030;4.606;2023-06-10T04:29:50;19.90;98.30
43581;DHT22;29175;51.030;4.606;2023-06-10T04:32:16;20.00;98.00
43581;DHT22;29175;51.030;4.606;2023-06-10T04:34:42;20.10;98.30
43581;DHT22;29175;51.030;4.606;2023-06-10T04:37:08;20.00;98.20
43581;DHT22;29175;51.030;4.606;2023-06-10T04:39:33;19.90;98.00
43581;DHT22;29175;51.030;4.606;2023-06-10T04:41:59;19.90;98.30
43581;DHT22;29175;51.030;4.606;2023-06-10T04:44:25;20.10;98.50
43581;DHT22;29175;51.030;4.606;2023-06-10T04:46:51;20.10;98.30
43581;DHT22;29175;51.030;4.606;2023-06-10T04:49:21;20.30;98.30
43581;DHT22;29175;51.030;4.606;2023-06-10T04:51:46;20.40;97.90
43581;DHT22;29175;51.030;4.606;2023-06-10T04:54:12;20.40;98.00
43581;DHT22;29175;51.030;4.606;2023-06-10T04:56:38;20.70;97.40
43581;DHT22;29175;51.030;4.606;2023-06-10T04:59:04;21.00;97.10
43581;DHT22;29175;51.030;4.606;2023-06-10T05:01:30;21.00;96.80
43581;DHT22;29175;51.030;4.606;2023-06-10T05:03:56;21.20;96.30
43581;DHT22;29175;51.030;4.606;2023-06-10T05:06:22;21.00;97.10
43581;DHT22;29175;51.030;4.606;2023-06-10T05:08:47;20.90;97.00
43581;DHT22;29175;51.030;4.606;2023-06-10T05:11:14;20.90;97.00
43581;DHT22;29175;51.030;4.606;2023-06-10T05:13:41;21.40;97.20
43581;DHT22;29175;51.030;4.606;2023-06-10T05:16:08;21.60;95.50
43581;DHT22;29175;51.030;4.606;2023-06-10T05:18:34;21.20;95.90
43581;DHT22;29175;51.030;4.606;2023-06-10T05:21:02;21.40;96.10
43581;DHT22;29175;51.030;4.606;2023-06-10T05:23:29;21.70;95.50
43581;DHT22;29175;51.030;4.606;2023-06-10T05:25:55;21.70;94.70
43581;DHT22;29175;51.030;4.606;2023-06-10T05:28:21;21.80;95.40
43581;DHT22;29175;51.030;4.606;2023-06-10T05:30:46;21.40;96.70
43581;DHT22;29175;51.030;4.606;2023-06-10T05:33:12;21.90;95.80
43581;DHT22;29175;51.030;4.606;2023-06-10T05:35:38;21.70;95.10
43581;DHT22;29175;51.030;4.606;2023-06-10T05:38:04;21.50;95.80
43581;DHT22;29175;51.030;4.606;2023-06-10T05:40:30;21.90;96.20
43581;DHT22;29175;51.030;4.606;2023-06-10T05:42:56;21.70;95.30
43581;DHT22;29175;51.030;4.606;2023-06-10T05:45:21;21.30;95.90
43581;DHT22;29175;51.030;4.606;2023-06-10T05:47:47;21.00;96.40
43581;DHT22;29175;51.030;4.606;2023-06-10T05:50:13;21.10;96.70
43581;DHT22;29175;51.030;4.606;2023-06-10T05:52:38;21.30;96.10
43581;DHT22;29175;51.030;4.606;2023-06-10T05:55:07;21.60;96.30
43581;DHT22;29175;51.030;4.606;2023-06-10T05:57:33;21.80;95.20
43581;DHT22;29175;51.030;4.606;2023-06-10T05:59:59;21.80;95.20
43581;DHT22;29175;51.030;4.606;2023-06-10T06:02:25;21.90;95.00
43581;DHT22;29175;51.030;4.606;2023-06-10T06:04:50;21.40;95.50
43581;DHT22;29175;51.030;4.606;2023-06-10T06:07:16;21.10;96.20
43581;DHT22;29175;51.030;4.606;2023-06-10T06:09:42;21.30;95.90
43581;DHT22;29175;51.030;4.606;2023-06-10T06:12:08;21.40;95.80
43581;DHT22;29175;51.030;4.606;2023-06-10T06:14:46;21.50;95.90
43581;DHT22;29175;51.030;4.606;2023-06-10T06:17:11;21.90;94.70
43581;DHT22;29175;51.030;4.606;2023-06-10T06:19:38;21.60;95.40
43581;DHT22;29175;51.030;4.606;2023-06-10T06:22:03;21.60;96.10
43581;DHT22;29175;51.030;4.606;2023-06-10T06:24:29;21.90;95.30
43581;DHT22;29175;51.030;4.606;2023-06-10T06:26:55;22.00;95.50
43581;DHT22;29175;51.030;4.606;2023-06-10T06:29:20;22.00;95.10
43581;DHT22;29175;51.030;4.606;2023-06-10T06:31:46;22.10;94.60
43581;DHT22;29175;51.030;4.606;2023-06-10T06:34:12;22.70;94.00
43581;DHT22;29175;51.030;4.606;2023-06-10T06:36:37;23.80;92.60
43581;DHT22;29175;51.030;4.606;2023-06-10T06:39:03;25.40;90.90
43581;DHT22;29175;51.030;4.606;2023-06-10T06:41:29;26.20;88.20
43581;DHT22;29175;51.030;4.606;2023-06-10T06:43:55;26.40;88.10
43581;DHT22;29175;51.030;4.606;2023-06-10T06:46:20;28.10;84.60
43581;DHT22;29175;51.030;4.606;2023-06-10T06:48:48;28.60;81.00
43581;DHT22;29175;51.030;4.606;2023-06-10T06:51:14;29.60;79.30
43581;DHT22;29175;51.030;4.606;2023-06-10T06:53:39;31.10;75.80
43581;DHT22;29175;51.030;4.606;2023-06-10T06:56:10;32.00;74.20
43581;DHT22;29175;51.030;4.606;2023-06-10T06:58:36;30.30;75.50
43581;DHT22;29175;51.030;4.606;2023-06-10T07:01:01;30.60;76.40
43581;DHT22;29175;51.030;4.606;2023-06-10T07:03:27;32.40;73.50
43581;DHT22;29175;51.030;4.606;2023-06-10T07:05:53;33.00;70.00
43581;DHT22;29175;51.030;4.606;2023-06-10T07:08:18;33.90;68.90
43581;DHT22;29175;51.030;4.606;2023-06-10T07:10:44;33.90;68.50
43581;DHT22;29175;51.030;4.606;2023-06-10T07:13:10;34.70;66.40
43581;DHT22;29175;51.030;4.606;2023-06-10T07:15:35;35.20;65.60
43581;DHT22;29175;51.030;4.606;2023-06-10T07:18:01;34.90;65.90
43581;DHT22;29175;51.030;4.606;2023-06-10T07:20:27;34.90;65.60
43581;DHT22;29175;51.030;4.606;2023-06-10T07:22:52;33.90;68.10
43581;DHT22;29175;51.030;4.606;2023-06-10T07:25:18;34.60;65.10
43581;DHT22;29175;51.030;4.606;2023-06-10T07:27:44;33.80;66.30
43581;DHT22;29175;51.030;4.606;2023-06-10T07:30:10;34.20;67.10
43581;DHT22;29175;51.030;4.606;2023-06-10T07:32:36;35.70;66.00
43581;DHT22;29175;51.030;4.606;2023-06-10T07:35:02;36.30;62.60
43581;DHT22;29175;51.030;4.606;2023-06-10T07:37:28;35.40;64.10
43581;DHT22;29175;51.030;4.606;2023-06-10T07:39:53;35.70;66.50
43581;DHT22;29175;51.030;4.606;2023-06-10T07:42:19;35.90;61.90
43581;DHT22;29175;51.030;4.606;2023-06-10T07:44:44;36.40;62.50
43581;DHT22;29175;51.030;4.606;2023-06-10T07:47:10;33.00;66.20
43581;DHT22;29175;51.030;4.606;2023-06-10T07:49:36;34.10;65.10
43581;DHT22;29175;51.030;4.606;2023-06-10T07:52:01;34.80;64.30
43581;DHT22;29175;51.030;4.606;2023-06-10T07:54:27;35.60;62.40
43581;DHT22;29175;51.030;4.606;2023-06-10T07:56:53;35.40;62.20
43581;DHT22;29175;51.030;4.606;2023-06-10T07:59:18;35.40;63.00
43581;DHT22;29175;51.030;4.606;2023-06-10T08:01:44;35.80;62.00
43581;DHT22;29175;51.030;4.606;2023-06-10T08:04:10;35.60;63.90
43581;DHT22;29175;51.030;4.606;2023-06-10T08:06:36;36.00;61.40
43581;DHT22;29175;51.030;4.606;2023-06-10T08:09:02;35.80;62.30
43581;DHT22;29175;51.030;4.606;2023-06-10T08:11:29;36.20;60.90
43581;DHT22;29175;51.030;4.606;2023-06-10T08:13:55;36.90;60.10
43581;DHT22;29175;51.030;4.606;2023-06-10T08:16:21;37.40;59.50
43581;DHT22;29175;51.030;4.606;2023-06-10T08:18:46;37.10;59.60
43581;DHT22;29175;51.030;4.606;2023-06-10T08:21:12;38.20;58.20
43581;DHT22;29175;51.030;4.606;2023-06-10T08:23:37;39.20;59.00
43581;DHT22;29175;51.030;4.606;2023-06-10T08:26:03;40.30;57.30
43581;DHT22;29175;51.030;4.606;2023-06-10T08:28:29;39.80;55.90
43581;DHT22;29175;51.030;4.606;2023-06-10T08:30:54;40.20;56.70
43581;DHT22;29175;51.030;4.606;2023-06-10T08:33:20;41.00;55.90
43581;DHT22;29175;51.030;4.606;2023-06-10T08:35:46;40.50;54.60
43581;DHT22;29175;51.030;4.606;2023-06-10T08:38:11;37.70;57.40
43581;DHT22;29175;51.030;4.606;2023-06-10T08:40:37;36.70;58.30
43581;DHT22;29175;51.030;4.606;2023-06-10T08:43:08;37.80;57.60
43581;DHT22;29175;51.030;4.606;2023-06-10T08:45:36;37.30;58.00
43581;DHT22;29175;51.030;4.606;2023-06-10T08:48:06;38.10;58.40
43581;DHT22;29175;51.030;4.606;2023-06-10T08:50:35;39.80;57.70
43581;DHT22;29175;51.030;4.606;2023-06-10T08:53:02;40.80;56.20
43581;DHT22;29175;51.030;4.606;2023-06-10T08:55:42;41.10;55.00
43581;DHT22;29175;51.030;4.606;2023-06-10T08:58:07;40.30;54.90
43581;DHT22;29175;51.030;4.606;2023-06-10T09:00:34;38.90;57.70
43581;DHT22;29175;51.030;4.606;2023-06-10T09:03:01;39.10;56.40
43581;DHT22;29175;51.030;4.606;2023-06-10T09:05:29;40.80;56.50
43581;DHT22;29175;51.030;4.606;2023-06-10T09:07:57;40.40;54.90
43581;DHT22;29175;51.030;4.606;2023-06-10T09:10:23;40.10;54.90
43581;DHT22;29175;51.030;4.606;2023-06-10T09:12:48;40.90;55.10
43581;DHT22;29175;51.030;4.606;2023-06-10T09:15:14;41.70;54.50
43581;DHT22;29175;51.030;4.606;2023-06-10T09:17:42;42.80;53.80
43581;DHT22;29175;51.030;4.606;2023-06-10T09:20:08;42.50;54.60
43581;DHT22;29175;51.030;4.606;2023-06-10T09:22:34;43.00;53.90
43581;DHT22;29175;51.030;4.606;2023-06-10T09:27:30;42.10;53.30
43581;DHT22;29175;51.030;4.606;2023-06-10T09:29:57;42.30;53.00
43581;DHT22;29175;51.030;4.606;2023-06-10T09:32:24;43.00;54.00
43581;DHT22;29175;51.030;4.606;2023-06-10T09:34:50;41.80;53.80
43581;DHT22;29175;51.030;4.606;2023-06-10T09:37:23;42.20;53.70
43581;DHT22;29175;51.030;4.606;2023-06-10T09:40:07;42.60;52.60
43581;DHT22;29175;51.030;4.606;2023-06-10T09:42:35;42.50;52.60
43581;DHT22;29175;51.030;4.606;2023-06-10T09:45:02;40.80;54.90
43581;DHT22;29175;51.030;4.606;2023-06-10T09:47:28;39.80;55.30
43581;DHT22;29175;51.030;4.606;2023-06-10T09:49:54;40.60;55.30
43581;DHT22;29175;51.030;4.606;2023-06-10T09:52:24;41.70;54.40
43581;DHT22;29175;51.030;4.606;2023-06-10T09:54:54;40.30;54.60
43581;DHT22;29175;51.030;4.606;2023-06-10T09:57:21;41.80;53.50
43581;DHT22;29175;51.030;4.606;2023-06-10T09:59:46;43.20;53.50
43581;DHT22;29175;51.030;4.606;2023-06-10T10:02:16;42.00;52.60
43581;DHT22;29175;51.030;4.606;2023-06-10T10:04:46;42.90;52.90
43581;DHT22;29175;51.030;4.606;2023-06-10T10:07:12;42.80;50.70
43581;DHT22;29175;51.030;4.606;2023-06-10T10:09:39;42.80;49.60
43581;DHT22;29175;51.030;4.606;2023-06-10T10:12:10;42.90;50.40
43581;DHT22;29175;51.030;4.606;2023-06-10T10:14:43;43.20;50.60
43581;DHT22;29175;51.030;4.606;2023-06-10T10:17:11;43.90;51.00
43581;DHT22;29175;51.030;4.606;2023-06-10T10:19:46;44.40;50.30
43581;DHT22;29175;51.030;4.606;2023-06-10T10:22:41;40.70;50.40
43581;DHT22;29175;51.030;4.606;2023-06-10T10:25:18;40.20;52.90
43581;DHT22;29175;51.030;4.606;2023-06-10T10:28:34;41.20;50.70
43581;DHT22;29175;51.030;4.606;2023-06-10T10:30:41;41.00;51.20
43581;DHT22;29175;51.030;4.606;2023-06-10T10:33:19;41.10;51.90
43581;DHT22;29175;51.030;4.606;2023-06-10T10:35:49;41.50;50.90
43581;DHT22;29175;51.030;4.606;2023-06-10T10:38:15;39.50;53.10
43581;DHT22;29175;51.030;4.606;2023-06-10T10:40:41;41.00;52.70
43581;DHT22;29175;51.030;4.606;2023-06-10T10:43:09;42.20;52.30
43581;DHT22;29175;51.030;4.606;2023-06-10T10:45:35;41.60;50.00
43581;DHT22;29175;51.030;4.606;2023-06-10T10:48:07;42.20;48.90
43581;DHT22;29175;51.030;4.606;2023-06-10T10:50:35;40.30;48.10
43581;DHT22;29175;51.030;4.606;2023-06-10T10:53:03;41.10;49.20
43581;DHT22;29175;51.030;4.606;2023-06-10T10:55:29;41.20;49.70
43581;DHT22;29175;51.030;4.606;2023-06-10T10:57:56;41.60;50.10
43581;DHT22;29175;51.030;4.606;2023-06-10T11:00:33;41.60;48.50
43581;DHT22;29175;51.030;4.606;2023-06-10T11:05:42;40.50;50.60
43581;DHT22;29175;51.030;4.606;2023-06-10T11:10:54;39.70;50.90
43581;DHT22;29175;51.030;4.606;2023-06-10T11:13:21;38.60;50.60
43581;DHT22;29175;51.030;4.606;2023-06-10T11:15:50;39.20;51.50
43581;DHT22;29175;51.030;4.606;2023-06-10T11:18:26;39.20;51.60
43581;DHT22;29175;51.030;4.606;2023-06-10T11:31:32;36.00;53.20
43581;DHT22;29175;51.030;4.606;2023-06-10T11:34:03;35.20;55.80
43581;DHT22;29175;51.030;4.606;2023-06-10T11:36:30;36.10;55.20
43581;DHT22;29175;51.030;4.606;2023-06-10T11:39:00;36.60;53.80
43581;DHT22;29175;51.030;4.606;2023-06-10T11:41:27;37.70;53.50
43581;DHT22;29175;51.030;4.606;2023-06-10T11:43:56;35.70;54.70
43581;DHT22;29175;51.030;4.606;2023-06-10T11:46:22;35.10;57.30
43581;DHT22;29175;51.030;4.606;2023-06-10T11:48:58;36.50;55.10
43581;DHT22;29175;51.030;4.606;2023-06-10T11:51:28;36.20;55.20
43581;DHT22;29175;51.030;4.606;2023-06-10T11:53:55;36.00;56.00
43581;DHT22;29175;51.030;4.606;2023-06-10T11:56:25;34.50;54.90
43581;DHT22;29175;51.030;4.606;2023-06-10T11:58:55;35.20;55.40
43581;DHT22;29175;51.030;4.606;2023-06-10T12:01:22;36.50;53.60
43581;DHT22;29175;51.030;4.606;2023-06-10T12:03:56;37.50;52.90
43581;DHT22;29175;51.030;4.606;2023-06-10T12:06:22;36.10;54.50
43581;DHT22;29175;51.030;4.606;2023-06-10T12:08:48;34.70;56.20
43581;DHT22;29175;51.030;4.606;2023-06-10T12:11:14;33.60;56.60
43581;DHT22;29175;51.030;4.606;2023-06-10T12:13:47;33.50;57.00
43581;DHT22;29175;51.030;4.606;2023-06-10T12:16:16;33.90;56.10
43581;DHT22;29175;51.030;4.606;2023-06-10T12:18:44;34.00;56.90
43581;DHT22;29175;51.030;4.606;2023-06-10T12:24:19;33.40;56.50
43581;DHT22;29175;51.030;4.606;2023-06-10T12:26:44;32.90;57.30
43581;DHT22;29175;51.030;4.606;2023-06-10T12:29:20;32.60;57.80
43581;DHT22;29175;51.030;4.606;2023-06-10T12:34:43;32.30;57.70
43581;DHT22;29175;51.030;4.606;2023-06-10T12:37:13;32.50;57.80
43581;DHT22;29175;51.030;4.606;2023-06-10T12:39:42;33.10;57.40
43581;DHT22;29175;51.030;4.606;2023-06-10T12:42:12;33.00;57.50
43581;DHT22;29175;51.030;4.606;2023-06-10T12:44:41;32.80;58.00
43581;DHT22;29175;51.030;4.606;2023-06-10T12:47:10;32.60;58.60
43581;DHT22;29175;51.030;4.606;2023-06-10T12:49:38;32.40;59.40
43581;DHT22;29175;51.030;4.606;2023-06-10T12:52:04;32.10;59.10
43581;DHT22;29175;51.030;4.606;2023-06-10T12:54:30;32.00;57.00
43581;DHT22;29175;51.030;4.606;2023-06-10T12:56:56;32.40;56.60
43581;DHT22;29175;51.030;4.606;2023-06-10T12:59:22;32.70;57.50
43581;DHT22;29175;51.030;4.606;2023-06-10T13:01:51;31.70;57.30
43581;DHT22;29175;51.030;4.606;2023-06-10T13:04:17;31.80;56.50
43581;DHT22;29175;51.030;4.606;2023-06-10T13:06:45;31.80;57.40
43581;DHT22;29175;51.030;4.606;2023-06-10T13:09:12;31.80;57.00
43581;DHT22;29175;51.030;4.606;2023-06-10T13:11:38;32.20;57.40
43581;DHT22;29175;51.030;4.606;2023-06-10T13:14:04;32.60;57.30
43581;DHT22;29175;51.030;4.606;2023-06-10T13:16:32;32.50;56.90
43581;DHT22;29175;51.030;4.606;2023-06-10T13:18:59;32.10;57.20
43581;DHT22;29175;51.030;4.606;2023-06-10T13:21:28;32.50;57.30
43581;DHT22;29175;51.030;4.606;2023-06-10T13:23:54;32.10;57.20
43581;DHT22;29175;51.030;4.606;2023-06-10T13:26:20;31.70;58.60
43581;DHT22;29175;51.030;4.606;2023-06-10T13:28:46;31.60;59.10
43581;DHT22;29175;51.030;4.606;2023-06-10T13:31:11;31.40;57.30
43581;DHT22;29175;51.030;4.606;2023-06-10T13:33:37;31.10;57.80
43581;DHT22;29175;51.030;4.606;2023-06-10T13:36:04;31.40;58.70
43581;DHT22;29175;51.030;4.606;2023-06-10T13:38:29;31.20;58.30
43581;DHT22;29175;51.030;4.606;2023-06-10T13:40:55;31.50;59.40
43581;DHT22;29175;51.030;4.606;2023-06-10T13:43:21;31.70;59.60
43581;DHT22;29175;51.030;4.606;2023-06-10T13:45:46;31.60;57.90
43581;DHT22;29175;51.030;4.606;2023-06-10T13:48:12;31.50;57.50
43581;DHT22;29175;51.030;4.606;2023-06-10T13:50:38;31.40;58.80
43581;DHT22;29175;51.030;4.606;2023-06-10T13:53:03;31.00;58.50
43581;DHT22;29175;51.030;4.606;2023-06-10T13:55:29;31.00;58.60
43581;DHT22;29175;51.030;4.606;2023-06-10T13:57:55;31.40;60.60
43581;DHT22;29175;51.030;4.606;2023-06-10T14:00:21;31.90;58.80
43581;DHT22;29175;51.030;4.606;2023-06-10T14:02:46;31.90;57.70
43581;DHT22;29175;51.030;4.606;2023-06-10T14:05:12;31.90;58.50
43581;DHT22;29175;51.030;4.606;2023-06-10T14:07:37;31.80;56.90
43581;DHT22;29175;51.030;4.606;2023-06-10T14:10:04;31.80;56.10
43581;DHT22;29175;51.030;4.606;2023-06-10T14:12:29;31.70;57.70
43581;DHT22;29175;51.030;4.606;2023-06-10T14:14:55;31.60;57.80
43581;DHT22;29175;51.030;4.606;2023-06-10T14:17:21;32.00;56.80
43581;DHT22;29175;51.030;4.606;2023-06-10T14:19:48;31.90;57.50
43581;DHT22;29175;51.030;4.606;2023-06-10T14:22:14;31.20;57.90
43581;DHT22;29175;51.030;4.606;2023-06-10T14:24:39;31.10;57.80
43581;DHT22;29175;51.030;4.606;2023-06-10T14:27:05;31.10;57.40
43581;DHT22;29175;51.030;4.606;2023-06-10T14:29:31;31.10;58.90
43581;DHT22;29175;51.030;4.606;2023-06-10T14:31:59;31.60;58.60
43581;DHT22;29175;51.030;4.606;2023-06-10T14:34:25;32.00;57.70
43581;DHT22;29175;51.030;4.606;2023-06-10T14:36:55;31.10;56.70
43581;DHT22;29175;51.030;4.606;2023-06-10T14:39:21;31.10;57.30
43581;DHT22;29175;51.030;4.606;2023-06-10T14:41:46;30.90;57.20
43581;DHT22;29175;51.030;4.606;2023-06-10T14:44:12;31.00;58.40
43581;DHT22;29175;51.030;4.606;2023-06-10T14:46:38;31.50;57.80
43581;DHT22;29175;51.030;4.606;2023-06-10T14:49:03;31.90;58.90
43581;DHT22;29175;51.030;4.606;2023-06-10T14:51:29;31.80;57.60
43581;DHT22;29175;51.030;4.606;2023-06-10T14:53:55;31.40;57.60
43581;DHT22;29175;51.030;4.606;2023-06-10T14:56:20;31.60;58.90
43581;DHT22;29175;51.030;4.606;2023-06-10T14:58:46;31.60;57.40
43581;DHT22;29175;51.030;4.606;2023-06-10T15:01:12;31.50;56.30
43581;DHT22;29175;51.030;4.606;2023-06-10T15:03:37;31.70;57.40
43581;DHT22;29175;51.030;4.606;2023-06-10T15:06:03;31.90;56.70
43581;DHT22;29175;51.030;4.606;2023-06-10T15:08:29;32.20;57.60
43581;DHT22;29175;51.030;4.606;2023-06-10T15:10:54;32.20;56.70
43581;DHT22;29175;51.030;4.606;2023-06-10T15:13:20;32.50;56.80
43581;DHT22;29175;51.030;4.606;2023-06-10T15:15:46;32.40;55.10
43581;DHT22;29175;51.030;4.606;2023-06-10T15:18:12;32.10;57.10
43581;DHT22;29175;51.030;4.606;2023-06-10T15:20:38;32.10;56.20
43581;DHT22;29175;51.030;4.606;2023-06-10T15:23:04;31.80;57.00
43581;DHT22;29175;51.030;4.606;2023-06-10T15:25:29;31.60;56.00
43581;DHT22;29175;51.030;4.606;2023-06-10T15:27:55;31.50;56.30
43581;DHT22;29175;51.030;4.606;2023-06-10T15:30:21;31.60;56.00
43581;DHT22;29175;51.030;4.606;2023-06-10T15:32:46;31.70;57.50
43581;DHT22;29175;51.030;4.606;2023-06-10T15:35:12;31.60;54.30
43581;DHT22;29175;51.030;4.606;2023-06-10T15:37:38;31.20;56.10
43581;DHT22;29175;51.030;4.606;2023-06-10T15:40:04;31.30;55.70
43581;DHT22;29175;51.030;4.606;2023-06-10T15:42:30;31.60;54.90
43581;DHT22;29175;51.030;4.606;2023-06-10T15:44:55;31.30;55.40
43581;DHT22;29175;51.030;4.606;2023-06-10T15:47:21;31.50;56.70
43581;DHT22;29175;51.030;4.606;2023-06-10T15:49:47;31.70;56.10
43581;DHT22;29175;51.030;4.606;2023-06-10T15:52:13;31.80;57.20
43581;DHT22;29175;51.030;4.606;2023-06-10T15:54:38;32.10;56.70
43581;DHT22;29175;51.030;4.606;2023-06-10T15:57:04;32.10;56.20